sensor_id;sensor_type;location;lat;lon;timestamp;temperature;humidity
53272;DHT22;39160;48.580;7.756;2022-08-19T00:00:55;23.20;99.90
53272;DHT22;39160;48.580;7.756;2022-08-19T00:05:45;23.10;99.90
53272;DHT22;39160;48.580;7.756;2022-08-19T00:10:36;23.00;99.90
53272;DHT22;39160;48.580;7.756;2022-08-19T00:15:27;22.90;99.90
53272;DHT22;39160;48.580;7.756;2022-08-19T00:20:20;23.10;99.90
53272;DHT22;39160;48.580;7.756;2022-08-19T00:25:11;22.80;99.90
53272;DHT22;39160;48.580;7.756;2022-08-19T00:30:04;22.70;99.90
53272;DHT22;39160;48.580;7.756;2022-08-19T00:34:56;22.70;99.90
53272;DHT22;39160;48.580;7.756;2022-08-19T00:39:46;22.70;99.90
53272;DHT22;39160;48.580;7.756;2022-08-19T00:44:37;22.70;99.90
53272;DHT22;39160;48.580;7.756;2022-08-19T00:49:36;22.70;99.90
53272;DHT22;39160;48.580;7.756;2022-08-19T00:54:28;22.80;99.90
53272;DHT22;39160;48.580;7.756;2022-08-19T00:59:21;22.70;99.90
53272;DHT22;39160;48.580;7.756;2022-08-19T01:04:13;22.70;99.90
53272;DHT22;39160;48.580;7.756;2022-08-19T01:09:04;22.70;99.90
53272;DHT22;39160;48.580;7.756;2022-08-19T01:13:55;22.70;99.90
53272;DHT22;39160;48.580;7.756;2022-08-19T01:18:47;22.70;99.90
53272;DHT22;39160;48.580;7.756;2022-08-19T01:23:38;22.60;99.90
53272;DHT22;39160;48.580;7.756;2022-08-19T01:28:36;22.60;99.90
53272;DHT22;39160;48.580;7.756;2022-08-19T01:33:26;22.70;99.90
53272;DHT22;39160;48.580;7.756;2022-08-19T01:38:23;22.80;99.90
53272;DHT22;39160;48.580;7.756;2022-08-19T01:43:14;22.70;99.90
53272;DHT22;39160;48.580;7.756;2022-08-19T01:48:06;22.80;99.90
53272;DHT22;39160;48.580;7.756;2022-08-19T01:52:57;22.90;99.90
53272;DHT22;39160;48.580;7.756;2022-08-19T01:57:52;22.70;99.90
53272;DHT22;39160;48.580;7.756;2022-08-19T02:02:44;22.70;99.90
53272;DHT22;39160;48.580;7.756;2022-08-19T02:07:36;22.70;99.90
53272;DHT22;39160;48.580;7.756;2022-08-19T02:12:27;22.60;99.90
53272;DHT22;39160;48.580;7.756;2022-08-19T02:17:17;22.50;99.90
53272;DHT22;39160;48.580;7.756;2022-08-19T02:22:08;22.40;99.90
53272;DHT22;39160;48.580;7.756;2022-08-19T02:26:59;22.30;99.90
53272;DHT22;39160;48.580;7.756;2022-08-19T02:31:49;22.10;99.90
53272;DHT22;39160;48.580;7.756;2022-08-19T02:36:40;22.00;99.90
53272;DHT22;39160;48.580;7.756;2022-08-19T02:41:32;22.00;99.90
53272;DHT22;39160;48.580;7.756;2022-08-19T02:46:29;22.10;99.90
53272;DHT22;39160;48.580;7.756;2022-08-19T02:51:26;22.30;99.90
53272;DHT22;39160;48.580;7.756;2022-08-19T02:56:17;22.30;99.90
53272;DHT22;39160;48.580;7.756;2022-08-19T03:01:08;22.30;99.90
53272;DHT22;39160;48.580;7.756;2022-08-19T03:06:13;22.30;99.90
53272;DHT22;39160;48.580;7.756;2022-08-19T03:11:04;22.30;99.90
53272;DHT22;39160;48.580;7.756;2022-08-19T03:15:55;22.40;99.90
53272;DHT22;39160;48.580;7.756;2022-08-19T03:20:51;22.30;99.90
53272;DHT22;39160;48.580;7.756;2022-08-19T03:25:45;22.20;99.90
53272;DHT22;39160;48.580;7.756;2022-08-19T03:30:36;22.40;99.90
53272;DHT22;39160;48.580;7.756;2022-08-19T03:35:27;22.40;99.90
53272;DHT22;39160;48.580;7.756;2022-08-19T03:40:18;22.50;99.90
53272;DHT22;39160;48.580;7.756;2022-08-19T03:45:09;22.40;99.90
53272;DHT22;39160;48.580;7.756;2022-08-19T03:50:00;22.30;99.90
53272;DHT22;39160;48.580;7.756;2022-08-19T03:54:51;22.20;99.90
53272;DHT22;39160;48.580;7.756;2022-08-19T03:59:42;22.20;99.90
53272;DHT22;39160;48.580;7.756;2022-08-19T04:04:33;22.20;99.90
53272;DHT22;39160;48.580;7.756;2022-08-19T04:09:24;22.30;99.90
53272;DHT22;39160;48.580;7.756;2022-08-19T04:14:18;22.20;99.90
53272;DHT22;39160;48.580;7.756;2022-08-19T04:19:08;22.30;99.90
53272;DHT22;39160;48.580;7.756;2022-08-19T04:23:59;22.40;99.90
53272;DHT22;39160;48.580;7.756;2022-08-19T04:28:50;22.40;99.90
53272;DHT22;39160;48.580;7.756;2022-08-19T04:33:42;22.30;99.90
53272;DHT22;39160;48.580;7.756;2022-08-19T04:38:32;22.40;99.90
53272;DHT22;39160;48.580;7.756;2022-08-19T04:43:23;22.40;99.90
53272;DHT22;39160;48.580;7.756;2022-08-19T04:48:14;22.30;99.90
53272;DHT22;39160;48.580;7.756;2022-08-19T04:53:04;22.30;99.90
53272;DHT22;39160;48.580;7.756;2022-08-19T04:57:55;22.40;99.90
53272;DHT22;39160;48.580;7.756;2022-08-19T05:02:46;22.30;99.90
53272;DHT22;39160;48.580;7.756;2022-08-19T05:07:36;22.40;99.90
53272;DHT22;39160;48.580;7.756;2022-08-19T05:12:27;22.40;99.90
53272;DHT22;39160;48.580;7.756;2022-08-19T05:17:19;22.40;99.90
53272;DHT22;39160;48.580;7.756;2022-08-19T05:22:09;22.40;99.90
53272;DHT22;39160;48.580;7.756;2022-08-19T05:27:18;22.40;99.90
53272;DHT22;39160;48.580;7.756;2022-08-19T05:32:09;22.40;99.90
53272;DHT22;39160;48.580;7.756;2022-08-19T05:37:02;22.40;99.90
53272;DHT22;39160;48.580;7.756;2022-08-19T05:41:59;22.60;99.90
53272;DHT22;39160;48.580;7.756;2022-08-19T05:46:50;22.70;99.90
53272;DHT22;39160;48.580;7.756;2022-08-19T05:51:48;22.70;99.90
53272;DHT22;39160;48.580;7.756;2022-08-19T05:56:40;22.60;99.90
53272;DHT22;39160;48.580;7.756;2022-08-19T06:01:31;22.60;99.90
53272;DHT22;39160;48.580;7.756;2022-08-19T06:06:22;22.50;99.90
53272;DHT22;39160;48.580;7.756;2022-08-19T06:11:20;22.60;99.90
53272;DHT22;39160;48.580;7.756;2022-08-19T06:16:11;22.60;99.90
53272;DHT22;39160;48.580;7.756;2022-08-19T06:21:01;22.60;99.90
53272;DHT22;39160;48.580;7.756;2022-08-19T06:25:54;22.60;99.90
53272;DHT22;39160;48.580;7.756;2022-08-19T06:30:45;22.70;99.90
53272;DHT22;39160;48.580;7.756;2022-08-19T06:35:41;22.70;99.90
53272;DHT22;39160;48.580;7.756;2022-08-19T06:40:32;22.70;99.90
53272;DHT22;39160;48.580;7.756;2022-08-19T06:45:24;22.80;99.90
53272;DHT22;39160;48.580;7.756;2022-08-19T06:50:14;22.80;99.90
53272;DHT22;39160;48.580;7.756;2022-08-19T06:55:06;22.90;99.90
53272;DHT22;39160;48.580;7.756;2022-08-19T06:59:56;22.90;99.90
53272;DHT22;39160;48.580;7.756;2022-08-19T07:04:47;22.90;99.90
53272;DHT22;39160;48.580;7.756;2022-08-19T07:09:41;23.00;99.90
53272;DHT22;39160;48.580;7.756;2022-08-19T07:14:33;23.00;99.90
53272;DHT22;39160;48.580;7.756;2022-08-19T07:19:28;23.10;99.90
53272;DHT22;39160;48.580;7.756;2022-08-19T07:24:23;23.10;99.90
53272;DHT22;39160;48.580;7.756;2022-08-19T07:29:14;23.30;99.90
53272;DHT22;39160;48.580;7.756;2022-08-19T07:34:08;23.20;99.80
53272;DHT22;39160;48.580;7.756;2022-08-19T07:39:04;23.10;99.90
53272;DHT22;39160;48.580;7.756;2022-08-19T07:43:55;23.20;99.90
53272;DHT22;39160;48.580;7.756;2022-08-19T07:48:48;23.20;99.70
53272;DHT22;39160;48.580;7.756;2022-08-19T07:53:39;23.20;99.70
53272;DHT22;39160;48.580;7.756;2022-08-19T07:58:32;23.30;99.70
53272;DHT22;39160;48.580;7.756;2022-08-19T08:03:24;23.50;99.50
53272;DHT22;39160;48.580;7.756;2022-08-19T08:08:34;23.40;99.40
53272;DHT22;39160;48.580;7.756;2022-08-19T08:13:44;23.60;99.40
53272;DHT22;39160;48.580;7.756;2022-08-19T08:18:34;23.70;99.30
53272;DHT22;39160;48.580;7.756;2022-08-19T08:23:31;23.80;99.20
53272;DHT22;39160;48.580;7.756;2022-08-19T08:28:22;23.80;99.10
53272;DHT22;39160;48.580;7.756;2022-08-19T08:33:17;23.90;99.00
53272;DHT22;39160;48.580;7.756;2022-08-19T08:38:07;24.00;98.90
53272;DHT22;39160;48.580;7.756;2022-08-19T08:43:27;24.20;98.60
53272;DHT22;39160;48.580;7.756;2022-08-19T08:53:28;24.10;98.50
53272;DHT22;39160;48.580;7.756;2022-08-19T08:58:32;24.20;98.40
53272;DHT22;39160;48.580;7.756;2022-08-19T09:03:32;24.40;98.30
53272;DHT22;39160;48.580;7.756;2022-08-19T09:18:19;24.80;97.70
53272;DHT22;39160;48.580;7.756;2022-08-19T09:23:10;25.00;97.60
53272;DHT22;39160;48.580;7.756;2022-08-19T09:28:01;24.80;97.60
53272;DHT22;39160;48.580;7.756;2022-08-19T09:32:55;24.90;97.50
53272;DHT22;39160;48.580;7.756;2022-08-19T09:37:46;25.00;97.30
53272;DHT22;39160;48.580;7.756;2022-08-19T09:42:36;25.20;97.10
53272;DHT22;39160;48.580;7.756;2022-08-19T09:47:27;25.30;97.00
53272;DHT22;39160;48.580;7.756;2022-08-19T09:52:18;25.30;96.90
53272;DHT22;39160;48.580;7.756;2022-08-19T09:57:09;25.20;97.00
53272;DHT22;39160;48.580;7.756;2022-08-19T10:02:00;25.20;96.90
53272;DHT22;39160;48.580;7.756;2022-08-19T10:06:51;25.10;96.90
53272;DHT22;39160;48.580;7.756;2022-08-19T10:11:44;25.10;96.80
53272;DHT22;39160;48.580;7.756;2022-08-19T10:16:39;25.20;96.60
53272;DHT22;39160;48.580;7.756;2022-08-19T10:21:32;25.50;96.50
53272;DHT22;39160;48.580;7.756;2022-08-19T10:26:27;25.80;96.20
53272;DHT22;39160;48.580;7.756;2022-08-19T10:31:24;25.90;96.00
53272;DHT22;39160;48.580;7.756;2022-08-19T10:36:21;26.20;95.90
53272;DHT22;39160;48.580;7.756;2022-08-19T10:41:15;26.30;95.70
53272;DHT22;39160;48.580;7.756;2022-08-19T10:46:09;26.40;95.60
53272;DHT22;39160;48.580;7.756;2022-08-19T10:51:00;26.40;95.40
53272;DHT22;39160;48.580;7.756;2022-08-19T10:56:10;26.50;95.20
53272;DHT22;39160;48.580;7.756;2022-08-19T11:01:19;26.60;95.00
53272;DHT22;39160;48.580;7.756;2022-08-19T11:06:10;26.60;94.80
53272;DHT22;39160;48.580;7.756;2022-08-19T11:11:01;26.60;94.60
53272;DHT22;39160;48.580;7.756;2022-08-19T11:16:00;26.70;94.50
53272;DHT22;39160;48.580;7.756;2022-08-19T11:20:51;26.70;94.30
53272;DHT22;39160;48.580;7.756;2022-08-19T11:25:42;26.70;94.40
53272;DHT22;39160;48.580;7.756;2022-08-19T11:30:32;26.70;94.00
53272;DHT22;39160;48.580;7.756;2022-08-19T11:35:24;26.80;93.90
53272;DHT22;39160;48.580;7.756;2022-08-19T11:40:15;26.90;93.70
53272;DHT22;39160;48.580;7.756;2022-08-19T11:45:06;26.90;93.50
53272;DHT22;39160;48.580;7.756;2022-08-19T11:49:56;27.10;93.10
53272;DHT22;39160;48.580;7.756;2022-08-19T11:54:47;27.40;92.90
53272;DHT22;39160;48.580;7.756;2022-08-19T11:59:38;27.90;92.40
53272;DHT22;39160;48.580;7.756;2022-08-19T12:04:29;28.00;91.90
53272;DHT22;39160;48.580;7.756;2022-08-19T12:09:19;28.00;91.50
53272;DHT22;39160;48.580;7.756;2022-08-19T12:14:13;27.90;91.10
53272;DHT22;39160;48.580;7.756;2022-08-19T12:19:07;28.10;90.60
53272;DHT22;39160;48.580;7.756;2022-08-19T12:23:59;28.30;90.10
53272;DHT22;39160;48.580;7.756;2022-08-19T12:28:51;28.40;90.10
53272;DHT22;39160;48.580;7.756;2022-08-19T12:33:42;28.60;89.10
53272;DHT22;39160;48.580;7.756;2022-08-19T12:38:33;29.00;88.20
53272;DHT22;39160;48.580;7.756;2022-08-19T12:43:27;29.90;87.40
53272;DHT22;39160;48.580;7.756;2022-08-19T12:48:20;30.30;86.20
53272;DHT22;39160;48.580;7.756;2022-08-19T12:53:11;30.10;84.80
53272;DHT22;39160;48.580;7.756;2022-08-19T12:58:02;29.90;83.90
53272;DHT22;39160;48.580;7.756;2022-08-19T13:02:54;30.10;83.40
53272;DHT22;39160;48.580;7.756;2022-08-19T13:07:45;30.50;82.50
53272;DHT22;39160;48.580;7.756;2022-08-19T13:12:36;30.40;81.30
53272;DHT22;39160;48.580;7.756;2022-08-19T13:17:27;29.90;80.30
53272;DHT22;39160;48.580;7.756;2022-08-19T13:22:18;29.30;79.50
53272;DHT22;39160;48.580;7.756;2022-08-19T13:27:09;29.70;78.40
53272;DHT22;39160;48.580;7.756;2022-08-19T13:31:59;29.80;76.90
53272;DHT22;39160;48.580;7.756;2022-08-19T13:37:09;29.40;75.80
53272;DHT22;39160;48.580;7.756;2022-08-19T13:42:00;29.10;75.40
53272;DHT22;39160;48.580;7.756;2022-08-19T13:46:51;29.00;75.00
53272;DHT22;39160;48.580;7.756;2022-08-19T13:51:43;29.10;74.90
53272;DHT22;39160;48.580;7.756;2022-08-19T13:56:39;29.40;74.40
53272;DHT22;39160;48.580;7.756;2022-08-19T14:01:30;30.60;73.60
53272;DHT22;39160;48.580;7.756;2022-08-19T14:06:21;32.60;71.60
53272;DHT22;39160;48.580;7.756;2022-08-19T14:11:12;33.70;69.20
53272;DHT22;39160;48.580;7.756;2022-08-19T14:16:11;34.10;68.00
53272;DHT22;39160;48.580;7.756;2022-08-19T14:21:03;34.70;66.70
53272;DHT22;39160;48.580;7.756;2022-08-19T14:26:02;33.60;66.50
53272;DHT22;39160;48.580;7.756;2022-08-19T14:30:53;32.10;66.90
53272;DHT22;39160;48.580;7.756;2022-08-19T14:35:44;32.70;67.00
53272;DHT22;39160;48.580;7.756;2022-08-19T14:40:35;32.60;64.80
53272;DHT22;39160;48.580;7.756;2022-08-19T14:45:27;31.50;64.90
53272;DHT22;39160;48.580;7.756;2022-08-19T14:50:19;32.60;63.10
53272;DHT22;39160;48.580;7.756;2022-08-19T14:55:09;33.00;61.50
53272;DHT22;39160;48.580;7.756;2022-08-19T15:00:00;34.20;60.60
53272;DHT22;39160;48.580;7.756;2022-08-19T15:04:51;34.20;59.30
53272;DHT22;39160;48.580;7.756;2022-08-19T15:09:42;34.20;58.10
53272;DHT22;39160;48.580;7.756;2022-08-19T15:14:36;34.50;57.30
53272;DHT22;39160;48.580;7.756;2022-08-19T15:19:29;34.70;56.40
53272;DHT22;39160;48.580;7.756;2022-08-19T15:24:20;34.80;56.00
53272;DHT22;39160;48.580;7.756;2022-08-19T15:29:10;34.80;55.60
53272;DHT22;39160;48.580;7.756;2022-08-19T15:34:05;34.70;55.20
53272;DHT22;39160;48.580;7.756;2022-08-19T15:38:58;34.90;54.60
53272;DHT22;39160;48.580;7.756;2022-08-19T15:43:59;35.10;53.50
53272;DHT22;39160;48.580;7.756;2022-08-19T15:48:51;35.40;52.90
53272;DHT22;39160;48.580;7.756;2022-08-19T15:53:42;36.20;52.10
53272;DHT22;39160;48.580;7.756;2022-08-19T15:58:32;36.50;51.70
53272;DHT22;39160;48.580;7.756;2022-08-19T16:03:42;35.90;51.70
53272;DHT22;39160;48.580;7.756;2022-08-19T16:08:57;36.70;50.70
53272;DHT22;39160;48.580;7.756;2022-08-19T16:13:49;35.50;50.40
53272;DHT22;39160;48.580;7.756;2022-08-19T16:18:41;36.00;49.80
53272;DHT22;39160;48.580;7.756;2022-08-19T16:23:32;36.70;49.10
53272;DHT22;39160;48.580;7.756;2022-08-19T16:28:22;36.60;48.50
53272;DHT22;39160;48.580;7.756;2022-08-19T16:33:13;34.90;48.90
53272;DHT22;39160;48.580;7.756;2022-08-19T16:38:04;32.60;50.80
53272;DHT22;39160;48.580;7.756;2022-08-19T16:42:56;31.00;52.20
53272;DHT22;39160;48.580;7.756;2022-08-19T16:47:47;30.30;52.90
53272;DHT22;39160;48.580;7.756;2022-08-19T16:52:37;30.10;53.20
53272;DHT22;39160;48.580;7.756;2022-08-19T16:57:28;29.80;53.40
53272;DHT22;39160;48.580;7.756;2022-08-19T17:02:20;31.20;52.50
53272;DHT22;39160;48.580;7.756;2022-08-19T17:07:12;34.20;49.00
53272;DHT22;39160;48.580;7.756;2022-08-19T17:12:03;35.30;48.00
53272;DHT22;39160;48.580;7.756;2022-08-19T17:16:54;35.70;47.40
53272;DHT22;39160;48.580;7.756;2022-08-19T17:21:44;36.30;46.10
53272;DHT22;39160;48.580;7.756;2022-08-19T17:26:36;35.90;45.60
53272;DHT22;39160;48.580;7.756;2022-08-19T17:31:29;34.90;45.90
53272;DHT22;39160;48.580;7.756;2022-08-19T17:36:22;32.30;48.30
53272;DHT22;39160;48.580;7.756;2022-08-19T17:41:12;30.70;49.90
53272;DHT22;39160;48.580;7.756;2022-08-19T17:46:04;30.00;50.30
53272;DHT22;39160;48.580;7.756;2022-08-19T17:50:55;29.60;50.70
53272;DHT22;39160;48.580;7.756;2022-08-19T17:55:45;29.20;51.10
53272;DHT22;39160;48.580;7.756;2022-08-19T18:00:36;29.00;51.50
53272;DHT22;39160;48.580;7.756;2022-08-19T18:05:32;28.80;51.80
53272;DHT22;39160;48.580;7.756;2022-08-19T18:10:25;28.60;52.00
53272;DHT22;39160;48.580;7.756;2022-08-19T18:15:16;28.40;52.40
53272;DHT22;39160;48.580;7.756;2022-08-19T18:20:09;28.30;52.80
53272;DHT22;39160;48.580;7.756;2022-08-19T18:25:04;28.20;53.10
53272;DHT22;39160;48.580;7.756;2022-08-19T18:29:55;28.10;53.60
53272;DHT22;39160;48.580;7.756;2022-08-19T18:34:48;27.90;54.30
53272;DHT22;39160;48.580;7.756;2022-08-19T18:39:39;27.80;55.30
53272;DHT22;39160;48.580;7.756;2022-08-19T18:44:48;27.60;55.90
53272;DHT22;39160;48.580;7.756;2022-08-19T18:49:57;27.60;56.70
53272;DHT22;39160;48.580;7.756;2022-08-19T18:54:51;27.40;58.00
53272;DHT22;39160;48.580;7.756;2022-08-19T18:59:42;27.20;59.00
53272;DHT22;39160;48.580;7.756;2022-08-19T19:04:36;27.10;60.00
53272;DHT22;39160;48.580;7.756;2022-08-19T19:09:27;27.00;61.00
53272;DHT22;39160;48.580;7.756;2022-08-19T19:14:33;26.90;62.00
53272;DHT22;39160;48.580;7.756;2022-08-19T19:19:24;26.60;63.40
53272;DHT22;39160;48.580;7.756;2022-08-19T19:24:21;26.50;64.30
53272;DHT22;39160;48.580;7.756;2022-08-19T19:29:13;26.50;65.20
53272;DHT22;39160;48.580;7.756;2022-08-19T19:34:03;26.40;65.70
53272;DHT22;39160;48.580;7.756;2022-08-19T19:38:54;26.30;66.30
53272;DHT22;39160;48.580;7.756;2022-08-19T19:43:45;26.10;67.30
53272;DHT22;39160;48.580;7.756;2022-08-19T19:48:36;26.10;68.10
53272;DHT22;39160;48.580;7.756;2022-08-19T19:53:27;26.00;69.00
53272;DHT22;39160;48.580;7.756;2022-08-19T19:58:18;25.90;69.70
53272;DHT22;39160;48.580;7.756;2022-08-19T20:03:09;25.80;70.10
53272;DHT22;39160;48.580;7.756;2022-08-19T20:08:00;25.60;70.90
53272;DHT22;39160;48.580;7.756;2022-08-19T20:13:10;25.60;71.90
53272;DHT22;39160;48.580;7.756;2022-08-19T20:18:02;25.50;72.70
53272;DHT22;39160;48.580;7.756;2022-08-19T20:22:54;25.50;73.30
53272;DHT22;39160;48.580;7.756;2022-08-19T20:27:44;25.30;74.00
53272;DHT22;39160;48.580;7.756;2022-08-19T20:32:35;25.30;74.70
53272;DHT22;39160;48.580;7.756;2022-08-19T20:37:26;25.30;75.30
53272;DHT22;39160;48.580;7.756;2022-08-19T20:42:17;25.20;76.10
53272;DHT22;39160;48.580;7.756;2022-08-19T20:47:08;25.20;76.50
53272;DHT22;39160;48.580;7.756;2022-08-19T20:51:59;25.20;76.50
53272;DHT22;39160;48.580;7.756;2022-08-19T20:56:49;25.10;77.40
53272;DHT22;39160;48.580;7.756;2022-08-19T21:01:41;24.90;78.30
53272;DHT22;39160;48.580;7.756;2022-08-19T21:06:31;24.90;79.10
53272;DHT22;39160;48.580;7.756;2022-08-19T21:11:22;24.80;79.80
53272;DHT22;39160;48.580;7.756;2022-08-19T21:16:13;24.60;80.80
53272;DHT22;39160;48.580;7.756;2022-08-19T21:21:04;24.70;81.00
53272;DHT22;39160;48.580;7.756;2022-08-19T21:25:56;24.70;81.60
53272;DHT22;39160;48.580;7.756;2022-08-19T21:30:48;24.60;82.20
53272;DHT22;39160;48.580;7.756;2022-08-19T21:35:38;24.50;82.90
53272;DHT22;39160;48.580;7.756;2022-08-19T21:40:29;24.50;83.50
53272;DHT22;39160;48.580;7.756;2022-08-19T21:45:20;24.40;84.50
53272;DHT22;39160;48.580;7.756;2022-08-19T21:50:12;24.30;85.20
53272;DHT22;39160;48.580;7.756;2022-08-19T21:55:04;24.30;86.30
53272;DHT22;39160;48.580;7.756;2022-08-19T21:59:55;24.30;86.60
53272;DHT22;39160;48.580;7.756;2022-08-19T22:04:47;24.30;87.00
53272;DHT22;39160;48.580;7.756;2022-08-19T22:09:42;24.30;87.30
53272;DHT22;39160;48.580;7.756;2022-08-19T22:14:33;24.40;87.50
53272;DHT22;39160;48.580;7.756;2022-08-19T22:19:23;24.40;88.00
53272;DHT22;39160;48.580;7.756;2022-08-19T22:24:14;24.50;88.20
53272;DHT22;39160;48.580;7.756;2022-08-19T22:29:05;24.50;88.70
53272;DHT22;39160;48.580;7.756;2022-08-19T22:33:55;24.40;89.00
53272;DHT22;39160;48.580;7.756;2022-08-19T22:38:46;24.40;89.30
53272;DHT22;39160;48.580;7.756;2022-08-19T22:43:37;24.40;89.70
53272;DHT22;39160;48.580;7.756;2022-08-19T22:48:29;24.40;90.10
53272;DHT22;39160;48.580;7.756;2022-08-19T22:53:21;24.30;90.30
53272;DHT22;39160;48.580;7.756;2022-08-19T22:58:12;24.30;90.40
53272;DHT22;39160;48.580;7.756;2022-08-19T23:03:03;24.40;90.50
53272;DHT22;39160;48.580;7.756;2022-08-19T23:07:55;24.30;90.60
53272;DHT22;39160;48.580;7.756;2022-08-19T23:12:47;24.60;90.70
53272;DHT22;39160;48.580;7.756;2022-08-19T23:17:38;24.60;90.80
53272;DHT22;39160;48.580;7.756;2022-08-19T23:22:31;24.40;91.10
53272;DHT22;39160;48.580;7.756;2022-08-19T23:27:22;24.40;91.40
53272;DHT22;39160;48.580;7.756;2022-08-19T23:32:34;24.30;91.50
53272;DHT22;39160;48.580;7.756;2022-08-19T23:37:25;24.20;91.70
53272;DHT22;39160;48.580;7.756;2022-08-19T23:42:16;24.10;92.00
53272;DHT22;39160;48.580;7.756;2022-08-19T23:47:06;24.10;92.00
53272;DHT22;39160;48.580;7.756;2022-08-19T23:51:57;24.10;92.10
53272;DHT22;39160;48.580;7.756;2022-08-19T23:56:48;24.10;92.20
